KOSU/OSU METAR and TAF weather

Enter ICAO airport designator
Station Type Date Time Source
KOSU METAR 2019/10/18 10:53 UTC NOAA

KOSU 181053Z 30004KT 10SM CLR 01/00 A3007 RMK AO2 SLP187 T00110000


Station Type Date Time Source
KOSU Decoded METAR 2019/10/18 10:53 UTC NOAA

OHIO STATE UNIVERSITY AIRPORT , OH, United States (KOSU) 40-05N 083-05W 280M
Oct 18, 2019 - 06:53 AM EDT / 2019.10.18 1053 UTC
Wind: from the WNW (300 degrees) at 5 MPH (4 KT):0
Visibility: 10 mile(s):0
Sky conditions: clear
Temperature: 34.0 F (1.1 C)
Windchill: 30 F (-1 C):1
Dew Point: 32.0 F (0.0 C)
Relative Humidity: 92%
Pressure (altimeter): 30.07 in. Hg (1018 hPa)
ob: KOSU 181053Z 30004KT 10SM CLR 01/00 A3007 RMK AO2 SLP187 T00110000
cycle: 11

Station Type Date Time Source
KOSU TAF UTC NOAA

Error!

Example: see airport list